Terminal Aerodrome Forecast
Issued by NWS Sioux Falls, SD

Home | Current Version | Previous Version | Text Only | Print | Product List | Glossary On
Versions: 1 2 3 4 5 6 7 8 9 10 11 12
000
FTUS43 KFSD 101720
TAFSUX
TAF
KSUX 101720Z 1018/1118 13013KT P6SM OVC015
     FM102200 13012KT 1SM -SN OVC015
     FM110200 13012KT P6SM VCSH OVC015
     FM110700 13010KT P6SM OVC015
     FM110900 13008KT P6SM OVC025
     FM111400 33007KT P6SM OVC015=

USA.gov is the U.S. government's official web portal to all federal, state and local government web resources and services.